createdAt,value
2019-04-06T00:01:50.531Z,4.02
2019-04-06T00:04:20.698Z,4.07
2019-04-06T00:06:50.924Z,4.04
2019-04-06T00:09:21.127Z,4.01
2019-04-06T00:11:51.305Z,4.02
2019-04-06T00:14:21.483Z,4.01
2019-04-06T00:16:51.646Z,3.98
2019-04-06T00:19:21.842Z,3.89
2019-04-06T00:21:54.328Z,3.82
2019-04-06T00:24:24.515Z,3.74
2019-04-06T00:26:56.482Z,3.74
2019-04-06T00:29:32.444Z,3.70
2019-04-06T00:32:26.648Z,3.63
2019-04-06T00:34:56.832Z,3.66
2019-04-06T00:37:26.994Z,3.63
2019-04-06T00:39:57.157Z,3.56
2019-04-06T00:42:27.308Z,3.60
2019-04-06T00:44:57.520Z,3.60
2019-04-06T00:47:27.722Z,3.61
2019-04-06T00:49:57.929Z,3.55
2019-04-06T00:52:28.144Z,3.53
2019-04-06T00:54:58.388Z,3.50
2019-04-06T00:57:29.492Z,3.49
2019-04-06T00:59:59.767Z,3.49
2019-04-06T01:02:33.044Z,3.48
2019-04-06T01:05:05.720Z,3.48
2019-04-06T01:07:38.993Z,3.47
2019-04-06T01:10:09.204Z,3.46
2019-04-06T01:12:39.384Z,3.49
2019-04-06T01:15:11.057Z,3.48
2019-04-06T01:17:41.255Z,3.50
2019-04-06T01:20:12.493Z,3.51
2019-04-06T01:22:42.648Z,3.54
2019-04-06T01:25:14.135Z,3.52
2019-04-06T01:27:44.290Z,3.46
2019-04-06T01:30:18.252Z,3.44
2019-04-06T01:32:48.411Z,3.43
2019-04-06T01:35:18.694Z,3.43
2019-04-06T01:37:48.909Z,3.46
2019-04-06T01:40:20.602Z,3.45
2019-04-06T01:42:50.764Z,3.47
2019-04-06T01:45:23.659Z,3.48
2019-04-06T01:47:57.796Z,3.49
2019-04-06T01:50:27.994Z,3.42
2019-04-06T01:52:58.189Z,3.41
2019-04-06T01:55:28.372Z,3.37
2019-04-06T01:57:58.540Z,3.27
2019-04-06T02:00:28.721Z,3.21
2019-04-06T02:02:58.891Z,3.17
2019-04-06T02:05:29.152Z,3.15
2019-04-06T02:08:01.597Z,3.13
2019-04-06T02:10:31.772Z,3.10
2019-04-06T02:13:01.923Z,3.07
2019-04-06T02:15:35.013Z,3.04
2019-04-06T02:18:06.105Z,3.01
2019-04-06T02:20:36.834Z,2.97
2019-04-06T02:23:07.065Z,2.97
2019-04-06T02:25:39.083Z,2.95
2019-04-06T02:28:09.144Z,2.96
2019-04-06T02:30:44.772Z,2.95
2019-04-06T02:33:42.895Z,2.94
2019-04-06T02:36:32.081Z,2.93
2019-04-06T02:39:11.840Z,2.88
2019-04-06T02:41:50.263Z,2.89
2019-04-06T02:44:20.488Z,2.86
2019-04-06T02:46:51.156Z,2.80
2019-04-06T02:49:21.807Z,2.79
2019-04-06T02:51:52.215Z,2.80
2019-04-06T02:54:22.416Z,2.71
2019-04-06T02:56:52.740Z,2.69
2019-04-06T02:59:24.383Z,2.67
2019-04-06T03:01:54.780Z,2.65
2019-04-06T03:04:24.995Z,2.63
2019-04-06T03:06:55.233Z,2.63
2019-04-06T03:09:25.445Z,2.58
2019-04-06T03:11:56.233Z,2.54
2019-04-06T03:14:27.672Z,2.50
2019-04-06T03:16:57.870Z,2.48
2019-04-06T03:19:28.468Z,2.48
2019-04-06T03:21:58.646Z,2.43
2019-04-06T03:24:28.812Z,2.42
2019-04-06T03:27:01.734Z,2.39
2019-04-06T03:29:30.913Z,2.30
2019-04-06T03:32:01.380Z,2.31
2019-04-06T03:34:33.459Z,2.27
2019-04-06T03:37:07.576Z,2.21
2019-04-06T03:39:39.061Z,2.16
2019-04-06T03:42:11.099Z,2.10
2019-04-06T03:44:41.069Z,2.07
2019-04-06T03:47:11.283Z,2.01
2019-04-06T03:49:41.680Z,2.00
2019-04-06T03:52:13.345Z,1.98
2019-04-06T03:54:43.534Z,1.92
2019-04-06T03:57:17.081Z,1.89
2019-04-06T03:59:47.902Z,1.73
2019-04-06T04:02:18.096Z,1.66
2019-04-06T04:04:48.293Z,1.64
2019-04-06T04:07:18.437Z,1.61
2019-04-06T04:09:48.722Z,1.60
2019-04-06T04:12:18.912Z,1.58
2019-04-06T04:14:51.299Z,1.53
2019-04-06T04:17:28.309Z,1.53
2019-04-06T04:20:03.440Z,1.45
2019-04-06T04:22:43.125Z,1.42
2019-04-06T04:25:19.854Z,1.35
2019-04-06T04:27:55.597Z,1.37
2019-04-06T04:30:35.298Z,1.39
2019-04-06T04:33:12.340Z,1.38
2019-04-06T04:35:51.858Z,1.41
2019-04-06T04:38:25.646Z,1.45
2019-04-06T04:41:00.401Z,1.45
2019-04-06T04:43:36.180Z,1.33
2019-04-06T04:46:11.885Z,1.34
2019-04-06T04:48:51.378Z,1.44
2019-04-06T04:51:28.949Z,1.50
2019-04-06T04:54:00.921Z,1.53
2019-04-06T04:56:34.423Z,1.62
2019-04-06T04:59:10.656Z,1.65
2019-04-06T05:01:50.363Z,1.63
2019-04-06T05:04:23.491Z,1.69
2019-04-06T05:06:56.025Z,1.82
2019-04-06T05:09:31.017Z,1.97
2019-04-06T05:12:08.086Z,2.10
2019-04-06T05:15:06.510Z,2.16
2019-04-06T05:17:38.224Z,2.33
2019-04-06T05:20:14.948Z,2.57
2019-04-06T05:22:47.366Z,2.77
2019-04-06T05:25:19.848Z,2.98
2019-04-06T05:27:52.478Z,3.11
2019-04-06T05:30:22.247Z,3.29
2019-04-06T05:32:54.172Z,3.45
2019-04-06T05:35:26.528Z,3.61
2019-04-06T05:37:56.870Z,3.77
2019-04-06T05:40:31.277Z,3.99
2019-04-06T05:43:05.050Z,4.21
2019-04-06T05:45:40.452Z,4.51
2019-04-06T05:48:15.703Z,4.81
2019-04-06T05:50:55.566Z,5.08
2019-04-06T05:53:32.753Z,5.32
2019-04-06T05:56:10.593Z,5.57
2019-04-06T05:58:47.617Z,5.80
2019-04-06T06:01:24.715Z,6.09
2019-04-06T06:03:59.413Z,6.32
2019-04-06T06:06:30.605Z,6.59
2019-04-06T06:09:11.148Z,6.78
2019-04-06T06:11:45.566Z,6.95
2019-04-06T06:14:21.837Z,7.01
2019-04-06T06:16:56.506Z,7.04
2019-04-06T06:19:33.545Z,7.00
2019-04-06T06:22:13.936Z,7.02
2019-04-06T06:24:54.594Z,7.01
2019-04-06T06:27:30.935Z,6.95
2019-04-06T06:30:07.992Z,6.91
2019-04-06T06:32:46.942Z,7.06
2019-04-06T06:35:19.717Z,7.26
2019-04-06T06:37:50.664Z,7.48
2019-04-06T06:40:22.596Z,7.68
2019-04-06T06:42:53.795Z,7.79
2019-04-06T06:45:24.725Z,7.94
2019-04-06T06:47:55.535Z,8.21
2019-04-06T06:50:26.197Z,8.47
2019-04-06T06:52:57.094Z,8.67
2019-04-06T06:55:27.893Z,8.89
2019-04-06T06:57:58.594Z,9.06
2019-04-06T07:00:29.230Z,9.27
2019-04-06T07:03:00.214Z,9.39
2019-04-06T07:05:31.013Z,9.56
2019-04-06T07:08:01.928Z,9.62
2019-04-06T07:10:32.795Z,9.47
2019-04-06T07:13:03.456Z,9.51
2019-04-06T07:15:34.042Z,9.40
2019-04-06T07:18:05.100Z,9.60
2019-04-06T07:20:36.027Z,9.69
2019-04-06T07:23:06.673Z,9.79
2019-04-06T07:25:37.805Z,9.92
2019-04-06T07:28:08.656Z,10.06
2019-04-06T07:30:39.447Z,10.22
2019-04-06T07:33:11.112Z,10.40
2019-04-06T07:35:42.158Z,10.65
2019-04-06T07:38:12.955Z,10.87
2019-04-06T07:40:43.888Z,11.23
2019-04-06T07:43:16.927Z,11.32
2019-04-06T07:45:47.602Z,11.33
2019-04-06T07:48:18.261Z,11.28
2019-04-06T07:50:49.360Z,11.23
2019-04-06T07:53:20.180Z,11.00
2019-04-06T07:55:51.127Z,10.66
2019-04-06T07:58:22.183Z,10.63
2019-04-06T08:00:52.744Z,10.83
2019-04-06T08:03:24.763Z,10.85
2019-04-06T08:05:55.623Z,10.97
2019-04-06T08:08:28.618Z,11.15
2019-04-06T08:10:59.313Z,11.30
2019-04-06T08:13:30.021Z,11.37
2019-04-06T08:16:00.919Z,11.51
2019-04-06T08:18:32.429Z,11.48
2019-04-06T08:21:03.258Z,11.49
2019-04-06T08:23:34.313Z,11.49
2019-04-06T08:26:05.214Z,11.30
2019-04-06T08:28:35.944Z,11.35
2019-04-06T08:31:06.711Z,11.58
2019-04-06T08:33:37.539Z,11.73
2019-04-06T08:36:08.131Z,11.73
2019-04-06T08:38:38.917Z,11.74
2019-04-06T08:41:09.837Z,11.58
2019-04-06T08:43:40.883Z,11.57
2019-04-06T08:46:11.701Z,11.55
2019-04-06T08:48:42.373Z,11.60
2019-04-06T08:51:13.714Z,11.84
2019-04-06T08:53:45.171Z,12.01
2019-04-06T08:56:16.005Z,12.13
2019-04-06T08:58:47.027Z,12.20
2019-04-06T09:01:17.915Z,12.25
2019-04-06T09:03:48.651Z,12.38
2019-04-06T09:06:19.821Z,12.57
2019-04-06T09:08:51.681Z,12.55
2019-04-06T09:11:22.499Z,12.49
2019-04-06T09:13:54.030Z,12.29
2019-04-06T09:16:25.570Z,11.99
2019-04-06T09:18:59.762Z,12.03
2019-04-06T09:21:32.194Z,12.21
2019-04-06T09:24:03.165Z,12.20
2019-04-06T09:26:34.209Z,12.26
2019-04-06T09:29:05.192Z,12.22
2019-04-06T09:31:37.348Z,12.28
2019-04-06T09:34:09.227Z,12.32
2019-04-06T09:36:41.113Z,12.61
2019-04-06T09:39:12.234Z,12.82
2019-04-06T09:41:42.816Z,12.81
2019-04-06T09:44:22.855Z,12.71
2019-04-06T09:47:06.345Z,12.62
2019-04-06T09:49:51.502Z,12.78
2019-04-06T09:52:39.369Z,12.78
2019-04-06T09:55:23.596Z,12.66
2019-04-06T09:58:03.490Z,12.67
2019-04-06T10:00:53.583Z,12.64
2019-04-06T10:03:41.939Z,12.64
2019-04-06T10:06:32.269Z,12.55
2019-04-06T10:09:17.557Z,12.64
2019-04-06T10:12:13.338Z,12.38
2019-04-06T10:15:09.472Z,12.36
2019-04-06T10:17:59.035Z,12.35
2019-04-06T10:20:49.884Z,12.55
2019-04-06T10:23:40.045Z,12.74
2019-04-06T10:26:45.090Z,13.06
2019-04-06T10:29:33.434Z,13.24
2019-04-06T10:32:29.039Z,13.41
2019-04-06T10:35:27.939Z,13.59
2019-04-06T10:38:23.913Z,13.50
2019-04-06T10:41:23.050Z,13.38
2019-04-06T10:44:16.119Z,13.38
2019-04-06T10:47:04.659Z,13.48
2019-04-06T10:49:44.804Z,13.45
2019-04-06T10:52:40.678Z,13.53
2019-04-06T10:55:29.506Z,13.60
2019-04-06T10:58:17.960Z,13.82
2019-04-06T11:01:06.771Z,13.95
2019-04-06T11:03:56.929Z,13.95
2019-04-06T11:07:04.653Z,13.68
2019-04-06T11:09:58.992Z,13.66
2019-04-06T11:12:58.411Z,13.58
2019-04-06T11:15:47.696Z,13.59
2019-04-06T11:18:36.338Z,13.68
2019-04-06T11:21:34.969Z,13.92
2019-04-06T11:24:27.757Z,14.19
2019-04-06T11:27:14.609Z,14.37
2019-04-06T11:30:13.168Z,14.52
2019-04-06T11:33:01.610Z,14.65
2019-04-06T11:35:50.317Z,14.24
2019-04-06T11:38:39.139Z,14.64
2019-04-06T11:41:27.631Z,14.65
2019-04-06T11:44:18.646Z,14.51
2019-04-06T11:47:07.082Z,14.82
2019-04-06T11:50:00.420Z,14.80
2019-04-06T11:52:49.159Z,14.79
2019-04-06T11:55:39.464Z,14.63
2019-04-06T11:58:29.463Z,14.88
2019-04-06T12:01:07.103Z,14.90
2019-04-06T12:03:55.880Z,14.93
2019-04-06T12:07:00.815Z,14.77
2019-04-06T12:09:47.243Z,14.83
2019-04-06T12:12:36.149Z,14.85
2019-04-06T12:15:26.232Z,14.78
2019-04-06T12:18:13.498Z,14.77
2019-04-06T12:21:15.335Z,14.70
2019-04-06T12:24:11.817Z,14.55
2019-04-06T12:27:20.980Z,14.49
2019-04-06T12:30:36.686Z,14.43
2019-04-06T12:33:24.341Z,14.48
2019-04-06T12:36:24.443Z,14.64
2019-04-06T12:39:15.586Z,14.57
2019-04-06T12:42:22.925Z,14.55
2019-04-06T12:45:19.331Z,14.31
2019-04-06T12:48:30.628Z,14.19
2019-04-06T12:51:28.540Z,14.19
2019-04-06T12:54:18.644Z,14.12
2019-04-06T12:57:08.747Z,14.18
2019-04-06T13:00:08.337Z,14.09
2019-04-06T13:03:05.719Z,14.11
2019-04-06T13:05:55.613Z,13.88
2019-04-06T13:08:44.538Z,13.91
2019-04-06T13:11:38.396Z,14.08
2019-04-06T13:14:29.588Z,14.21
2019-04-06T13:17:39.066Z,14.35
2019-04-06T13:20:27.190Z,14.44
2019-04-06T13:23:20.025Z,14.27
2019-04-06T13:26:09.903Z,14.27
2019-04-06T13:29:04.806Z,14.43
2019-04-06T13:32:17.860Z,14.20
2019-04-06T13:35:01.770Z,13.98
2019-04-06T13:37:51.461Z,13.90
2019-04-06T13:40:46.212Z,13.95
2019-04-06T13:43:39.574Z,13.95
2019-04-06T13:46:38.132Z,13.83
2019-04-06T13:49:30.886Z,13.74
2019-04-06T13:52:09.565Z,13.79
2019-04-06T13:55:08.110Z,13.71
2019-04-06T13:58:13.376Z,13.81
2019-04-06T14:01:25.270Z,13.63
2019-04-06T14:04:18.240Z,13.61
2019-04-06T14:07:17.017Z,13.34
2019-04-06T14:10:12.338Z,13.30
2019-04-06T14:13:19.025Z,13.15
2019-04-06T14:16:12.380Z,13.14
2019-04-06T14:19:02.028Z,13.28
2019-04-06T14:21:51.088Z,13.27
2019-04-06T14:24:43.489Z,13.25
2019-04-06T14:27:37.342Z,13.17
2019-04-06T14:30:22.928Z,13.09
2019-04-06T14:33:21.728Z,13.00
2019-04-06T14:36:23.469Z,12.93
2019-04-06T14:39:31.380Z,12.97
2019-04-06T14:42:31.237Z,12.89
2019-04-06T14:45:31.236Z,12.75
2019-04-06T14:48:17.414Z,12.78
2019-04-06T14:51:24.852Z,12.77
2019-04-06T14:54:28.056Z,12.71
2019-04-06T14:57:25.199Z,12.62
2019-04-06T15:00:21.389Z,12.49
2019-04-06T15:03:28.078Z,12.55
2019-04-06T15:06:25.367Z,12.46
2019-04-06T15:09:20.169Z,12.44
2019-04-06T15:12:18.383Z,12.41
2019-04-06T15:15:10.969Z,12.40
2019-04-06T15:18:02.777Z,12.37
2019-04-06T15:20:48.469Z,12.25
2019-04-06T15:23:30.563Z,12.24
2019-04-06T15:26:21.847Z,12.18
2019-04-06T15:29:20.831Z,12.10
2019-04-06T15:32:07.541Z,12.04
2019-04-06T15:35:15.326Z,11.94
2019-04-06T15:38:07.285Z,11.93
2019-04-06T15:41:13.714Z,11.83
2019-04-06T15:44:10.467Z,11.76
2019-04-06T15:46:54.301Z,11.70
2019-04-06T15:50:04.529Z,11.70
2019-04-06T15:52:53.624Z,11.56
2019-04-06T15:56:01.427Z,10.73
2019-04-06T15:58:43.381Z,11.45
2019-04-06T16:01:32.902Z,11.40
2019-04-06T16:04:22.149Z,11.31
2019-04-06T16:07:16.393Z,11.37
2019-04-06T16:10:17.304Z,11.15
2019-04-06T16:13:15.848Z,11.08
2019-04-06T16:15:53.811Z,10.93
2019-04-06T16:18:48.814Z,10.81
2019-04-06T16:21:53.496Z,10.62
2019-04-06T16:24:51.328Z,10.52
2019-04-06T16:27:38.983Z,10.41
2019-04-06T16:30:29.243Z,10.37
2019-04-06T16:33:23.375Z,10.16
2019-04-06T16:36:13.628Z,10.09
2019-04-06T16:38:59.862Z,10.15
2019-04-06T16:41:50.013Z,10.13
2019-04-06T16:44:29.422Z,10.19
2019-04-06T16:47:30.561Z,9.90
2019-04-06T16:50:32.942Z,9.91
2019-04-06T16:53:35.243Z,9.89
2019-04-06T16:56:24.953Z,9.91
2019-04-06T16:59:19.968Z,9.59
2019-04-06T17:02:28.576Z,9.49
2019-04-06T17:05:29.516Z,9.31
2019-04-06T17:08:21.469Z,9.47
2019-04-06T17:11:05.166Z,9.32
2019-04-06T17:13:54.437Z,9.26
2019-04-06T17:16:46.501Z,9.11
2019-04-06T17:19:45.244Z,9.13
2019-04-06T17:22:38.365Z,9.14
2019-04-06T17:25:39.287Z,9.12
2019-04-06T17:28:34.134Z,8.96
2019-04-06T17:31:17.340Z,8.98
2019-04-06T17:34:12.468Z,8.89
2019-04-06T17:37:07.371Z,8.85
2019-04-06T17:40:12.191Z,8.86
2019-04-06T17:43:15.780Z,8.84
2019-04-06T17:46:10.923Z,8.70
2019-04-06T17:49:02.511Z,8.64
2019-04-06T17:51:51.895Z,8.56
2019-04-06T17:54:31.108Z,8.45
2019-04-06T17:57:26.170Z,8.37
2019-04-06T18:00:18.505Z,8.45
2019-04-06T18:03:16.443Z,8.37
2019-04-06T18:06:13.405Z,8.16
2019-04-06T18:09:34.414Z,8.13
2019-04-06T18:12:52.897Z,7.98
2019-04-06T18:15:31.470Z,8.02
2019-04-06T18:18:04.517Z,7.78
2019-04-06T18:20:50.603Z,7.78
2019-04-06T18:23:39.305Z,7.62
2019-04-06T18:26:26.352Z,7.56
2019-04-06T18:29:06.166Z,7.49
2019-04-06T18:32:02.980Z,7.57
2019-04-06T18:34:43.455Z,7.50
2019-04-06T18:37:43.352Z,7.48
2019-04-06T18:40:30.556Z,7.43
2019-04-06T18:43:09.712Z,7.43
2019-04-06T18:45:47.708Z,7.39
2019-04-06T18:48:31.630Z,7.32
2019-04-06T18:51:06.893Z,7.21
2019-04-06T18:53:56.585Z,7.29
2019-04-06T18:56:42.405Z,7.26
2019-04-06T18:59:23.238Z,7.31
2019-04-06T19:02:01.112Z,7.25
2019-04-06T19:04:34.683Z,7.21
2019-04-06T19:07:15.330Z,7.18
2019-04-06T19:09:54.727Z,7.28
2019-04-06T19:12:30.339Z,7.12
2019-04-06T19:15:02.366Z,7.24
2019-04-06T19:17:54.351Z,7.30
2019-04-06T19:20:30.715Z,7.24
2019-04-06T19:23:05.665Z,7.16
2019-04-06T19:25:43.299Z,7.15
2019-04-06T19:28:18.722Z,7.10
2019-04-06T19:31:08.052Z,7.14
2019-04-06T19:33:55.895Z,7.08
2019-04-06T19:36:34.016Z,7.05
2019-04-06T19:39:09.672Z,7.18
2019-04-06T19:41:42.816Z,6.33
2019-04-06T19:44:13.529Z,7.28
2019-04-06T19:46:46.498Z,7.11
2019-04-06T19:49:19.565Z,7.11
2019-04-06T19:51:55.806Z,7.16
2019-04-06T19:54:36.638Z,7.05
2019-04-06T19:57:09.019Z,7.15
2019-04-06T19:59:43.218Z,7.15
2019-04-06T20:02:15.865Z,7.18
2019-04-06T20:04:48.849Z,7.13
2019-04-06T20:07:22.935Z,7.22
2019-04-06T20:09:57.961Z,7.21
2019-04-06T20:12:32.447Z,7.29
2019-04-06T20:15:03.981Z,7.28
2019-04-06T20:17:41.035Z,7.31
2019-04-06T20:20:16.089Z,7.32
2019-04-06T20:22:48.753Z,7.28
2019-04-06T20:25:27.525Z,7.19
2019-04-06T20:28:01.272Z,7.23
2019-04-06T20:30:34.095Z,7.22
2019-04-06T20:33:12.042Z,7.18
2019-04-06T20:35:50.765Z,7.18
2019-04-06T20:38:29.016Z,7.16
2019-04-06T20:41:12.198Z,7.16
2019-04-06T20:43:44.890Z,7.17
2019-04-06T20:46:22.301Z,7.19
2019-04-06T20:49:00.117Z,7.21
2019-04-06T20:51:35.935Z,7.24
2019-04-06T20:54:14.212Z,7.31
2019-04-06T20:57:12.026Z,7.34
2019-04-06T20:59:53.845Z,7.40
2019-04-06T21:02:27.848Z,7.45
2019-04-06T21:05:00.350Z,7.46
2019-04-06T21:07:39.398Z,7.43
2019-04-06T21:10:17.109Z,7.43
2019-04-06T21:12:54.151Z,7.41
2019-04-06T21:15:35.806Z,7.36
2019-04-06T21:18:20.035Z,7.31
2019-04-06T21:20:56.507Z,7.28
2019-04-06T21:23:35.114Z,7.24
2019-04-06T21:26:19.174Z,7.12
2019-04-06T21:28:58.440Z,7.09
2019-04-06T21:31:32.818Z,7.02
2019-04-06T21:34:12.108Z,6.97
2019-04-06T21:36:46.136Z,6.93
2019-04-06T21:39:23.927Z,6.88
2019-04-06T21:41:55.400Z,6.81
2019-04-06T21:44:33.266Z,6.78
2019-04-06T21:47:12.442Z,6.72
2019-04-06T21:49:46.737Z,6.64
2019-04-06T21:52:21.601Z,6.55
2019-04-06T21:55:04.938Z,6.48
2019-04-06T21:57:43.640Z,6.41
2019-04-06T22:00:28.193Z,6.32
2019-04-06T22:03:08.862Z,6.21
2019-04-06T22:05:46.442Z,6.12
2019-04-06T22:08:20.422Z,6.03
2019-04-06T22:10:57.228Z,5.93
2019-04-06T22:13:32.871Z,5.83
2019-04-06T22:16:13.074Z,5.74
2019-04-06T22:18:46.563Z,5.66
2019-04-06T22:21:21.597Z,5.60
2019-04-06T22:23:55.402Z,5.51
2019-04-06T22:26:30.934Z,5.40
2019-04-06T22:29:03.876Z,5.32
2019-04-06T22:31:39.201Z,5.25
2019-04-06T22:34:16.160Z,5.14
2019-04-06T22:36:48.867Z,5.13
2019-04-06T22:39:25.188Z,5.08
2019-04-06T22:41:59.803Z,5.02
2019-04-06T22:44:37.170Z,4.99
2019-04-06T22:47:16.174Z,4.93
2019-04-06T22:49:49.711Z,4.89
2019-04-06T22:52:25.105Z,4.86
2019-04-06T22:55:02.506Z,4.84
2019-04-06T22:57:38.666Z,4.79
2019-04-06T23:00:13.388Z,4.63
2019-04-06T23:03:00.409Z,4.62
2019-04-06T23:05:41.553Z,4.63
2019-04-06T23:08:19.975Z,4.54
2019-04-06T23:10:53.112Z,4.52
2019-04-06T23:13:24.426Z,4.44
2019-04-06T23:16:01.065Z,4.47
2019-04-06T23:18:37.680Z,4.41
2019-04-06T23:21:13.902Z,4.36
2019-04-06T23:23:48.626Z,4.33
2019-04-06T23:26:21.889Z,4.27
2019-04-06T23:29:01.784Z,4.23
2019-04-06T23:31:41.764Z,4.22
2019-04-06T23:34:18.035Z,4.20
2019-04-06T23:36:55.720Z,4.16
2019-04-06T23:39:33.102Z,4.12
2019-04-06T23:42:08.849Z,4.04
2019-04-06T23:44:46.824Z,4.04
2019-04-06T23:47:20.613Z,4.01
2019-04-06T23:49:57.623Z,3.95
2019-04-06T23:52:33.305Z,3.94
2019-04-06T23:55:12.245Z,3.93
2019-04-06T23:57:47.781Z,3.93
